Bookmark and Share
Track history (hours):
 

Pintail

More information available from US FCC via Universal Licensing System and Coast Guard Vessel Documentation Center.

Last reported at 2014-Apr-24 08:33 UTC. Time now 2014-Apr-24 09:33 UTC.
Position N 48°32' W 122°60'.

Length 19 m.

Type: Towing. MMSI: 367460260.

NotesDate/timePositionNaut miles runAvg speedWind from/ knotsBaromVisibWave heightAir tempDewpointWater temp
2014-Apr-24 08:33N 48°32' W 122°60'0 0.0
2014-Apr-24 07:33N 48°32' W 122°60'0 0.0
2014-Apr-24 06:30N 48°32' W 122°60'0 0.0
2014-Apr-24 05:31N 48°32' W 122°60'0 0.0
2014-Apr-24 04:31N 48°32' W 122°60'0 0.0
2014-Apr-24 03:31N 48°32' W 122°60'0 0.0
2014-Apr-24 02:28N 48°32' W 122°60'0 0.0
2014-Apr-24 01:31N 48°32' W 122°60'0 0.0
2014-Apr-24 00:31N 48°32' W 122°60'0 0.0
2014-Apr-23 23:31N 48°32' W 122°60'3 3.3
2014-Apr-23 22:33N 48°35' W 123°01'2 2.1
2014-Apr-23 21:33N 48°37' W 123°03'4 3.5
2014-Apr-23 20:18N 48°36' W 123°09'7 2.5
2014-Apr-23 17:33N 48°33' W 123°00'1 1.3
2014-Apr-23 16:30N 48°32' W 122°60'0 0.0
2014-Apr-23 15:33N 48°32' W 122°60'0 0.0
2014-Apr-23 14:33N 48°32' W 122°60'0 0.0
2014-Apr-23 13:33N 48°32' W 122°60'0 0.0
2014-Apr-23 12:33N 48°32' W 122°60'0 0.0
2014-Apr-23 11:33N 48°32' W 122°60'0 0.0
2014-Apr-23 10:33N 48°32' W 122°60'0 0.0
2014-Apr-23 09:33N 48°32' W 122°60'0 0.0
2014-Apr-23 08:33N 48°32' W 122°60'0 0.0
2014-Apr-23 07:33N 48°32' W 122°60'0 0.0
2014-Apr-23 06:30N 48°32' W 122°60'0 0.0
2014-Apr-23 05:33N 48°32' W 122°60'0 0.0
2014-Apr-23 04:32N 48°32' W 122°60'0 0.0
2014-Apr-23 03:29N 48°32' W 122°60'0 0.0
2014-Apr-23 02:33N 48°32' W 122°60'0 0.0
2014-Apr-23 01:33N 48°32' W 122°60'0 0.0
2014-Apr-23 00:31N 48°32' W 122°60'0 0.0
2014-Apr-22 23:31N 48°32' W 122°60'0 0.0
2014-Apr-22 22:31N 48°32' W 122°60'3 3.2
2014-Apr-22 21:29N 48°35' W 123°02'1 0.2
2014-Apr-22 16:30N 48°34' W 123°01'2 1.9
2014-Apr-22 15:31N 48°32' W 123°00'0 0.5
2014-Apr-22 14:33N 48°32' W 122°60'0 0.0
2014-Apr-22 13:33N 48°32' W 122°60'0 0.0
2014-Apr-22 12:33N 48°32' W 122°60'0 0.0
2014-Apr-22 11:33N 48°32' W 122°60'0 0.0
2014-Apr-22 10:33N 48°32' W 122°60'0 0.0
2014-Apr-22 09:33N 48°32' W 122°60'0 0.0
2014-Apr-22 08:30N 48°32' W 122°60'0 0.0
2014-Apr-22 07:31N 48°32' W 122°60'0 0.0
2014-Apr-22 06:31N 48°32' W 122°60'0 0.0
2014-Apr-22 05:31N 48°32' W 122°60'0 0.0
2014-Apr-22 04:31N 48°32' W 122°60'0 0.0
2014-Apr-22 03:31N 48°32' W 122°60'0 0.0
2014-Apr-22 02:31N 48°32' W 122°60'0 0.0
2014-Apr-22 01:28N 48°32' W 122°60'0 0.0
2014-Apr-22 00:31N 48°32' W 122°60'0 0.0
2014-Apr-21 23:31N 48°32' W 122°60'0 0.0
2014-Apr-21 22:33N 48°32' W 122°60'0 0.0
2014-Apr-21 21:32N 48°32' W 122°60'0 0.0
2014-Apr-21 20:32N 48°32' W 122°60'2 1.7
2014-Apr-21 19:33N 48°32' W 122°58'6 5.7
2014-Apr-21 18:33N 48°32' W 122°49'7 6.6
2014-Apr-21 17:33N 48°32' W 122°39'1 0.5
2014-Apr-21 16:29N 48°32' W 122°40'6 6.5
2014-Apr-21 15:33N 48°32' W 122°49'6 5.5
2014-Apr-21 14:33N 48°33' W 122°57'2 1.9
2014-Apr-21 13:33N 48°32' W 122°60'0 0.0
2014-Apr-21 12:33N 48°32' W 122°60'0 0.0
2014-Apr-21 11:33N 48°32' W 122°60'0 0.0
2014-Apr-21 10:33N 48°32' W 122°60'0 0.0
2014-Apr-21 09:33N 48°32' W 122°60'0 0.0
2014-Apr-21 08:33N 48°32' W 122°60'0 0.0
2014-Apr-21 07:33N 48°32' W 122°60'0 0.0
2014-Apr-21 06:33N 48°32' W 122°60'0 0.0
2014-Apr-21 05:33N 48°32' W 122°60'0 0.0
2014-Apr-21 04:33N 48°32' W 122°60'0 0.0
2014-Apr-21 03:33N 48°32' W 122°60'0 0.0
2014-Apr-21 02:33N 48°32' W 122°60'0 0.0
2014-Apr-21 01:33N 48°32' W 122°60'0 0.0
2014-Apr-21 00:33N 48°32' W 122°60'0 0.0
2014-Apr-20 23:33N 48°32' W 122°60'0 0.0
2014-Apr-20 22:24N 48°32' W 122°60'0 0.0
2014-Apr-20 21:33N 48°32' W 122°60'0 0.0
2014-Apr-20 20:33N 48°32' W 122°60'0 0.0
2014-Apr-20 19:33N 48°32' W 122°60'0 0.0
2014-Apr-20 18:33N 48°32' W 122°60'0 0.0
2014-Apr-20 17:33N 48°32' W 122°60'0 0.0
2014-Apr-20 16:33N 48°32' W 122°60'0 0.0
2014-Apr-20 15:30N 48°32' W 122°60'0 0.0
2014-Apr-20 14:33N 48°32' W 122°60'0 0.0
2014-Apr-20 13:33N 48°32' W 122°60'0 0.0
2014-Apr-20 12:33N 48°32' W 122°60'0 0.0
2014-Apr-20 11:33N 48°32' W 122°60'0 0.0
2014-Apr-20 10:33N 48°32' W 122°60'0 0.0
2014-Apr-20 09:33N 48°32' W 122°60'0 0.0
2014-Apr-20 08:27N 48°32' W 122°60'0 0.0
2014-Apr-20 07:30N 48°32' W 122°60'0 0.0
2014-Apr-20 06:33N 48°32' W 122°60'0 0.0
2014-Apr-20 05:33N 48°32' W 122°60'0 0.0
2014-Apr-20 04:33N 48°32' W 122°60'0 0.0
2014-Apr-20 03:33N 48°32' W 122°60'0 0.0
2014-Apr-20 02:33N 48°32' W 122°60'0 0.0
2014-Apr-20 01:33N 48°32' W 122°60'0 0.0
2014-Apr-20 00:27N 48°32' W 122°60'0 0.0
2014-Apr-19 23:33N 48°32' W 122°60'0 0.0
2014-Apr-19 22:33N 48°32' W 122°60'0 0.0
2014-Apr-19 21:33N 48°32' W 122°60'0 0.0
2014-Apr-19 20:33N 48°32' W 122°60'0 0.0
2014-Apr-19 19:33N 48°32' W 122°60'0 0.0
2014-Apr-19 18:30N 48°32' W 122°60'0 0.0
2014-Apr-19 17:33N 48°32' W 122°60'0 0.0
2014-Apr-19 16:33N 48°32' W 122°60'0 0.0
2014-Apr-19 15:33N 48°32' W 122°60'0 0.0
2014-Apr-19 14:34N 48°32' W 122°60'0 0.0
2014-Apr-19 13:34N 48°32' W 122°60'0 0.0
2014-Apr-19 12:33N 48°32' W 122°60'0 0.0
2014-Apr-19 11:34N 48°32' W 122°60'0 0.0
2014-Apr-19 10:28N 48°32' W 122°60'0 0.0
2014-Apr-19 09:34N 48°32' W 122°60'0 0.0
2014-Apr-19 08:31N 48°32' W 122°60'0 0.0
2014-Apr-19 07:31N 48°32' W 122°60'0 0.0
2014-Apr-19 06:31N 48°32' W 122°60'0 0.0
2014-Apr-19 05:31N 48°32' W 122°60'0 0.0
2014-Apr-19 04:31N 48°32' W 122°60'0 0.0
2014-Apr-19 03:31N 48°32' W 122°60'0 0.0
2014-Apr-19 02:31N 48°32' W 122°60'0 0.0
2014-Apr-19 01:31N 48°32' W 122°60'0 0.0
2014-Apr-19 00:31N 48°32' W 122°60'0 0.0
2014-Apr-18 23:31N 48°32' W 122°60'0 0.0
2014-Apr-18 22:31N 48°32' W 122°60'0 0.0
2014-Apr-18 21:31N 48°32' W 122°60'0 0.0
2014-Apr-18 20:31N 48°32' W 122°60'0 0.0
2014-Apr-18 19:33N 48°32' W 122°60'0 0.0
2014-Apr-18 18:33N 48°32' W 122°60'0 0.4
2014-Apr-18 17:33N 48°32' W 123°00'0 0.0
2014-Apr-18 16:33N 48°32' W 123°00'0 0.1
2014-Apr-18 15:33N 48°32' W 123°00'0 0.4
2014-Apr-18 14:28N 48°32' W 122°60'0 0.0
2014-Apr-18 13:31N 48°32' W 122°60'0 0.0
2014-Apr-18 12:31N 48°32' W 122°60'0 0.0
2014-Apr-18 11:33N 48°32' W 122°60'0 0.0
2014-Apr-18 10:33N 48°32' W 122°60'0 0.0
2014-Apr-18 09:33N 48°32' W 122°60'0 0.0
2014-Apr-18 08:33N 48°32' W 122°60'0 0.0
2014-Apr-18 07:33N 48°32' W 122°60'0 0.0
2014-Apr-18 06:33N 48°32' W 122°60'0 0.0
2014-Apr-18 05:33N 48°32' W 122°60'0 0.0
2014-Apr-18 04:33N 48°32' W 122°60'0 0.0
2014-Apr-18 03:33N 48°32' W 122°60'0 0.0
2014-Apr-18 02:33N 48°32' W 122°60'0 0.0
2014-Apr-18 01:33N 48°32' W 122°60'0 0.0
2014-Apr-18 00:33N 48°32' W 122°60'0 0.0
2014-Apr-17 23:33N 48°32' W 122°60'0 0.0
2014-Apr-17 22:33N 48°32' W 122°60'0 0.0
2014-Apr-17 21:33N 48°32' W 122°60'0 0.0
2014-Apr-17 20:29N 48°32' W 122°60'4 3.9
2014-Apr-17 19:33N 48°33' W 122°55'5 5.0
2014-Apr-17 18:33N 48°32' W 122°48'7 7.0
2014-Apr-17 17:33N 48°31' W 122°37'3 2.6
2014-Apr-17 16:32N 48°32' W 122°41'6 6.0
2014-Apr-17 15:33N 48°31' W 122°50'2 2.3
2014-Apr-17 14:33N 48°33' W 122°51'3 3.4
2014-Apr-17 13:33N 48°33' W 122°56'3 2.6
2014-Apr-17 12:31N 48°32' W 122°60'0 0.0
2014-Apr-17 11:31N 48°32' W 122°60'0 0.0
2014-Apr-17 10:28N 48°32' W 122°60'0 0.0
2014-Apr-17 09:31N 48°32' W 122°60'0 0.0
2014-Apr-17 08:31N 48°32' W 122°60'0 0.0
2014-Apr-17 07:31N 48°32' W 122°60'0 0.0
2014-Apr-17 06:31N 48°32' W 122°60'0 0.0
2014-Apr-17 05:31N 48°32' W 122°60'0 0.0
2014-Apr-17 04:31N 48°32' W 122°60'0 0.0
2014-Apr-17 03:33N 48°32' W 122°60'0 0.0
2014-Apr-17 02:33N 48°32' W 122°60'1 0.6
2014-Apr-17 01:33N 48°32' W 122°59'3 2.7
2014-Apr-17 00:33N 48°33' W 122°56'3 3.0
2014-Apr-16 23:33N 48°32' W 122°60'0 0.5
2014-Apr-16 22:33N 48°32' W 122°60'0 0.0
2014-Apr-16 21:34N 48°32' W 122°60'0 0.0
2014-Apr-16 20:24N 48°32' W 122°60'0 0.0
2014-Apr-16 19:34N 48°32' W 122°60'0 0.0
2014-Apr-16 18:28N 48°32' W 122°60'0 0.0
2014-Apr-16 17:28N 48°32' W 122°60'0 0.0
2014-Apr-16 16:28N 48°32' W 122°60'0 0.0
2014-Apr-16 15:34N 48°32' W 122°60'0 0.0
2014-Apr-16 14:31N 48°32' W 122°60'0 0.0
2014-Apr-16 13:28N 48°32' W 122°60'0 0.0
2014-Apr-16 12:31N 48°32' W 122°60'0 0.0
2014-Apr-16 11:28N 48°32' W 122°60'0 0.0
2014-Apr-16 10:31N 48°32' W 122°60'0 0.0
2014-Apr-16 09:31N 48°32' W 122°60'0 0.0
2014-Apr-16 08:31N 48°32' W 122°60'0 0.0
2014-Apr-16 07:31N 48°32' W 122°60'0 0.0
2014-Apr-16 06:28N 48°32' W 122°60'0 0.0
2014-Apr-16 05:31N 48°32' W 122°60'0 0.0
2014-Apr-16 04:31N 48°32' W 122°60'0 0.0
2014-Apr-16 03:31N 48°32' W 122°60'0 0.0
2014-Apr-16 02:31N 48°32' W 122°60'0 0.0
2014-Apr-16 01:28N 48°32' W 122°60'0 0.0
2014-Apr-16 00:28N 48°32' W 122°60'0 0.0
2014-Apr-15 23:28N 48°32' W 122°60'0 0.0
2014-Apr-15 22:31N 48°32' W 122°60'0 0.0
2014-Apr-15 21:31N 48°32' W 122°60'0 0.0
2014-Apr-15 20:31N 48°32' W 122°60'0 0.0
2014-Apr-15 19:28N 48°32' W 122°60'0 0.0
2014-Apr-15 18:31N 48°32' W 122°60'0 0.0
2014-Apr-15 17:28N 48°32' W 122°60'0 0.0
2014-Apr-15 16:31N 48°32' W 122°60'0 0.0
2014-Apr-15 15:31N 48°32' W 122°60'0 0.0
2014-Apr-15 14:31N 48°32' W 122°60'0 0.0
2014-Apr-15 11:31N 48°32' W 122°60'0 0.0
2014-Apr-15 10:31N 48°32' W 122°60'0 0.0
2014-Apr-15 09:31N 48°32' W 122°60'0 0.0
2014-Apr-15 08:31N 48°32' W 122°60'0 0.0
2014-Apr-15 07:31N 48°32' W 122°60'0 0.0
2014-Apr-15 06:31N 48°32' W 122°60'0 0.0
2014-Apr-15 03:31N 48°32' W 122°60'0 0.0
2014-Apr-15 02:31N 48°32' W 122°60'0 0.0
2014-Apr-15 01:31N 48°32' W 122°60'0 0.0
2014-Apr-15 00:31N 48°32' W 122°60'0 0.0
2014-Apr-14 23:31N 48°32' W 122°60'0 0.0
2014-Apr-14 22:31N 48°32' W 122°60'0 0.0
2014-Apr-14 21:31N 48°32' W 122°60'0 0.0
2014-Apr-14 20:31N 48°32' W 122°60'0 0.0
2014-Apr-14 19:31N 48°32' W 122°60'3 2.6
2014-Apr-14 18:34N 48°33' W 122°56'5 4.7
2014-Apr-14 17:34N 48°32' W 122°49'7 6.5
2014-Apr-14 16:32N 48°32' W 122°39'0 0.2
2014-Apr-14 15:33N 48°32' W 122°39'7 6.6
2014-Apr-14 14:33N 48°32' W 122°49'6 5.8
2014-Apr-14 13:33N 48°33' W 122°58'2 0.9
2014-Apr-14 11:31N 48°32' W 122°60'0 0.0
2014-Apr-14 10:31N 48°32' W 122°60'0 0.0
2014-Apr-14 09:31N 48°32' W 122°60'  

Dump ship's entire track history

sailing weather and tide predictions

Pintail — WDF5177 — position and weather